sensor_id;sensor_type;location;lat;lon;timestamp;temperature;humidity
67817;DHT22;54614;47.576;7.524;2022-07-29T00:00:45;24.80;62.00
67817;DHT22;54614;47.576;7.524;2022-07-29T00:03:12;24.80;62.10
67817;DHT22;54614;47.576;7.524;2022-07-29T00:05:40;24.80;62.10
67817;DHT22;54614;47.576;7.524;2022-07-29T00:08:09;24.80;62.10
67817;DHT22;54614;47.576;7.524;2022-07-29T00:10:35;24.80;62.00
67817;DHT22;54614;47.576;7.524;2022-07-29T00:13:01;24.80;61.90
67817;DHT22;54614;47.576;7.524;2022-07-29T00:15:27;24.80;61.80
67817;DHT22;54614;47.576;7.524;2022-07-29T00:17:53;24.90;61.80
67817;DHT22;54614;47.576;7.524;2022-07-29T00:20:19;24.90;61.70
67817;DHT22;54614;47.576;7.524;2022-07-29T00:22:45;25.00;61.60
67817;DHT22;54614;47.576;7.524;2022-07-29T00:25:12;25.00;61.60
67817;DHT22;54614;47.576;7.524;2022-07-29T00:27:38;25.00;61.60
67817;DHT22;54614;47.576;7.524;2022-07-29T00:30:05;25.00;61.50
67817;DHT22;54614;47.576;7.524;2022-07-29T00:32:32;25.00;61.50
67817;DHT22;54614;47.576;7.524;2022-07-29T00:34:59;25.00;61.40
67817;DHT22;54614;47.576;7.524;2022-07-29T00:37:43;25.00;61.50
67817;DHT22;54614;47.576;7.524;2022-07-29T00:40:10;25.00;61.40
67817;DHT22;54614;47.576;7.524;2022-07-29T00:42:50;25.00;61.40
67817;DHT22;54614;47.576;7.524;2022-07-29T00:45:17;25.00;61.50
67817;DHT22;54614;47.576;7.524;2022-07-29T00:47:44;25.00;61.60
67817;DHT22;54614;47.576;7.524;2022-07-29T00:50:12;25.00;61.50
67817;DHT22;54614;47.576;7.524;2022-07-29T00:52:40;25.00;61.60
67817;DHT22;54614;47.576;7.524;2022-07-29T00:55:09;25.00;61.70
67817;DHT22;54614;47.576;7.524;2022-07-29T00:57:41;25.00;61.70
67817;DHT22;54614;47.576;7.524;2022-07-29T01:00:10;25.00;61.80
67817;DHT22;54614;47.576;7.524;2022-07-29T01:02:38;25.00;61.90
67817;DHT22;54614;47.576;7.524;2022-07-29T01:05:05;25.00;62.00
67817;DHT22;54614;47.576;7.524;2022-07-29T01:07:33;25.00;62.20
67817;DHT22;54614;47.576;7.524;2022-07-29T01:10:05;25.00;62.20
67817;DHT22;54614;47.576;7.524;2022-07-29T01:12:34;25.00;62.20
67817;DHT22;54614;47.576;7.524;2022-07-29T01:15:04;25.00;62.30
67817;DHT22;54614;47.576;7.524;2022-07-29T01:26:45;24.90;62.60
67817;DHT22;54614;47.576;7.524;2022-07-29T01:29:30;24.90;62.50
67817;DHT22;54614;47.576;7.524;2022-07-29T01:32:08;24.90;62.80
67817;DHT22;54614;47.576;7.524;2022-07-29T01:34:45;24.90;62.90
67817;DHT22;54614;47.576;7.524;2022-07-29T01:37:43;25.00;62.80
67817;DHT22;54614;47.576;7.524;2022-07-29T01:40:22;25.00;62.90
67817;DHT22;54614;47.576;7.524;2022-07-29T01:43:01;25.00;62.80
67817;DHT22;54614;47.576;7.524;2022-07-29T01:45:40;25.00;63.00
67817;DHT22;54614;47.576;7.524;2022-07-29T01:51:05;24.90;63.20
67817;DHT22;54614;47.576;7.524;2022-07-29T01:54:10;24.90;63.20
67817;DHT22;54614;47.576;7.524;2022-07-29T01:56:43;24.90;63.10
67817;DHT22;54614;47.576;7.524;2022-07-29T01:59:11;24.90;63.30
67817;DHT22;54614;47.576;7.524;2022-07-29T02:01:39;24.90;63.60
67817;DHT22;54614;47.576;7.524;2022-07-29T02:04:08;24.90;63.40
67817;DHT22;54614;47.576;7.524;2022-07-29T02:06:38;24.90;63.20
67817;DHT22;54614;47.576;7.524;2022-07-29T02:09:10;24.90;63.60
67817;DHT22;54614;47.576;7.524;2022-07-29T02:11:39;24.90;63.60
67817;DHT22;54614;47.576;7.524;2022-07-29T02:14:07;24.90;63.60
67817;DHT22;54614;47.576;7.524;2022-07-29T02:16:36;24.90;63.70
67817;DHT22;54614;47.576;7.524;2022-07-29T02:19:04;24.90;64.50
67817;DHT22;54614;47.576;7.524;2022-07-29T02:21:32;24.90;63.70
67817;DHT22;54614;47.576;7.524;2022-07-29T02:24:01;24.90;63.80
67817;DHT22;54614;47.576;7.524;2022-07-29T02:26:31;24.90;63.60
67817;DHT22;54614;47.576;7.524;2022-07-29T02:28:59;24.90;64.00
67817;DHT22;54614;47.576;7.524;2022-07-29T02:31:31;24.90;63.80
67817;DHT22;54614;47.576;7.524;2022-07-29T02:34:02;24.90;64.00
67817;DHT22;54614;47.576;7.524;2022-07-29T02:36:31;24.90;63.90
67817;DHT22;54614;47.576;7.524;2022-07-29T02:38:59;24.90;63.70
67817;DHT22;54614;47.576;7.524;2022-07-29T02:41:48;24.90;63.70
67817;DHT22;54614;47.576;7.524;2022-07-29T02:44:19;24.90;64.00
67817;DHT22;54614;47.576;7.524;2022-07-29T02:55:04;24.90;64.00
67817;DHT22;54614;47.576;7.524;2022-07-29T02:58:03;24.90;63.80
67817;DHT22;54614;47.576;7.524;2022-07-29T03:00:40;24.90;64.10
67817;DHT22;54614;47.576;7.524;2022-07-29T03:03:11;24.90;64.30
67817;DHT22;54614;47.576;7.524;2022-07-29T03:05:40;24.90;64.10
67817;DHT22;54614;47.576;7.524;2022-07-29T03:08:08;24.90;64.00
67817;DHT22;54614;47.576;7.524;2022-07-29T03:10:38;24.90;64.30
67817;DHT22;54614;47.576;7.524;2022-07-29T03:13:08;24.90;64.00
67817;DHT22;54614;47.576;7.524;2022-07-29T03:15:35;24.90;64.30
67817;DHT22;54614;47.576;7.524;2022-07-29T03:18:02;24.80;64.10
67817;DHT22;54614;47.576;7.524;2022-07-29T03:20:31;24.80;64.20
67817;DHT22;54614;47.576;7.524;2022-07-29T03:22:57;24.80;64.50
67817;DHT22;54614;47.576;7.524;2022-07-29T03:25:23;24.90;64.20
67817;DHT22;54614;47.576;7.524;2022-07-29T03:27:48;24.90;64.00
67817;DHT22;54614;47.576;7.524;2022-07-29T03:30:15;24.90;64.30
67817;DHT22;54614;47.576;7.524;2022-07-29T03:32:41;24.90;64.20
67817;DHT22;54614;47.576;7.524;2022-07-29T03:35:08;24.90;64.10
67817;DHT22;54614;47.576;7.524;2022-07-29T03:37:34;24.90;64.30
67817;DHT22;54614;47.576;7.524;2022-07-29T03:40:05;24.90;64.20
67817;DHT22;54614;47.576;7.524;2022-07-29T03:42:36;24.90;64.40
67817;DHT22;54614;47.576;7.524;2022-07-29T03:45:12;24.80;64.10
67817;DHT22;54614;47.576;7.524;2022-07-29T03:47:46;24.90;64.40
67817;DHT22;54614;47.576;7.524;2022-07-29T03:50:16;24.90;64.20
67817;DHT22;54614;47.576;7.524;2022-07-29T03:52:45;24.90;64.30
67817;DHT22;54614;47.576;7.524;2022-07-29T03:55:13;25.00;64.30
67817;DHT22;54614;47.576;7.524;2022-07-29T03:57:40;24.90;64.20
67817;DHT22;54614;47.576;7.524;2022-07-29T04:00:08;24.90;64.20
67817;DHT22;54614;47.576;7.524;2022-07-29T04:02:36;24.90;64.40
67817;DHT22;54614;47.576;7.524;2022-07-29T04:05:03;24.90;64.30
67817;DHT22;54614;47.576;7.524;2022-07-29T04:07:29;24.90;64.20
67817;DHT22;54614;47.576;7.524;2022-07-29T04:09:55;24.90;64.40
67817;DHT22;54614;47.576;7.524;2022-07-29T04:12:21;24.90;64.30
67817;DHT22;54614;47.576;7.524;2022-07-29T04:14:47;24.90;64.20
67817;DHT22;54614;47.576;7.524;2022-07-29T04:17:14;24.90;64.40
67817;DHT22;54614;47.576;7.524;2022-07-29T04:19:41;24.80;64.30
67817;DHT22;54614;47.576;7.524;2022-07-29T04:22:06;24.80;64.50
67817;DHT22;54614;47.576;7.524;2022-07-29T04:24:32;24.80;64.70
67817;DHT22;54614;47.576;7.524;2022-07-29T04:26:58;24.80;64.40
67817;DHT22;54614;47.576;7.524;2022-07-29T04:29:24;24.80;64.60
67817;DHT22;54614;47.576;7.524;2022-07-29T04:31:50;24.90;64.40
67817;DHT22;54614;47.576;7.524;2022-07-29T04:34:16;24.90;64.50
67817;DHT22;54614;47.576;7.524;2022-07-29T04:36:42;24.90;64.40
67817;DHT22;54614;47.576;7.524;2022-07-29T04:39:07;24.80;64.40
67817;DHT22;54614;47.576;7.524;2022-07-29T04:41:33;24.80;64.40
67817;DHT22;54614;47.576;7.524;2022-07-29T04:43:59;24.60;67.20
67817;DHT22;54614;47.576;7.524;2022-07-29T04:46:31;24.40;67.60
67817;DHT22;54614;47.576;7.524;2022-07-29T04:48:57;24.40;68.40
67817;DHT22;54614;47.576;7.524;2022-07-29T04:51:23;24.30;68.80
67817;DHT22;54614;47.576;7.524;2022-07-29T04:53:49;24.20;69.30
67817;DHT22;54614;47.576;7.524;2022-07-29T04:56:15;24.00;69.90
67817;DHT22;54614;47.576;7.524;2022-07-29T04:58:41;24.00;69.70
67817;DHT22;54614;47.576;7.524;2022-07-29T05:01:06;23.90;70.70
67817;DHT22;54614;47.576;7.524;2022-07-29T05:03:35;23.80;70.90
67817;DHT22;54614;47.576;7.524;2022-07-29T05:06:01;23.80;70.90
67817;DHT22;54614;47.576;7.524;2022-07-29T05:08:27;23.80;70.50
67817;DHT22;54614;47.576;7.524;2022-07-29T05:10:53;23.80;70.30
67817;DHT22;54614;47.576;7.524;2022-07-29T05:13:19;23.90;71.00
67817;DHT22;54614;47.576;7.524;2022-07-29T05:15:45;23.80;71.20
67817;DHT22;54614;47.576;7.524;2022-07-29T05:18:11;23.70;71.50
67817;DHT22;54614;47.576;7.524;2022-07-29T05:20:36;23.70;71.30
67817;DHT22;54614;47.576;7.524;2022-07-29T05:23:02;23.70;71.20
67817;DHT22;54614;47.576;7.524;2022-07-29T05:25:29;23.70;71.00
67817;DHT22;54614;47.576;7.524;2022-07-29T05:27:55;23.90;71.30
67817;DHT22;54614;47.576;7.524;2022-07-29T05:30:22;23.60;72.50
67817;DHT22;54614;47.576;7.524;2022-07-29T05:32:48;23.30;72.80
67817;DHT22;54614;47.576;7.524;2022-07-29T05:35:15;23.30;72.70
67817;DHT22;54614;47.576;7.524;2022-07-29T05:37:41;23.40;72.10
67817;DHT22;54614;47.576;7.524;2022-07-29T05:40:08;23.50;72.00
67817;DHT22;54614;47.576;7.524;2022-07-29T05:42:34;23.50;72.30
67817;DHT22;54614;47.576;7.524;2022-07-29T05:45:01;23.50;72.10
67817;DHT22;54614;47.576;7.524;2022-07-29T05:47:28;23.50;72.20
67817;DHT22;54614;47.576;7.524;2022-07-29T05:49:54;23.50;72.60
67817;DHT22;54614;47.576;7.524;2022-07-29T05:52:20;23.50;72.30
67817;DHT22;54614;47.576;7.524;2022-07-29T05:54:47;23.30;73.50
67817;DHT22;54614;47.576;7.524;2022-07-29T05:57:22;23.20;73.90
67817;DHT22;54614;47.576;7.524;2022-07-29T05:59:49;23.10;73.50
67817;DHT22;54614;47.576;7.524;2022-07-29T06:02:16;23.10;73.30
67817;DHT22;54614;47.576;7.524;2022-07-29T06:04:43;23.10;73.00
67817;DHT22;54614;47.576;7.524;2022-07-29T06:07:12;23.20;72.60
67817;DHT22;54614;47.576;7.524;2022-07-29T06:09:38;23.20;72.60
67817;DHT22;54614;47.576;7.524;2022-07-29T06:12:04;23.10;72.70
67817;DHT22;54614;47.576;7.524;2022-07-29T06:14:30;23.20;72.80
67817;DHT22;54614;47.576;7.524;2022-07-29T06:17:05;23.20;73.00
67817;DHT22;54614;47.576;7.524;2022-07-29T06:19:34;23.10;73.10
67817;DHT22;54614;47.576;7.524;2022-07-29T06:22:02;23.00;73.60
67817;DHT22;54614;47.576;7.524;2022-07-29T06:24:29;22.90;73.40
67817;DHT22;54614;47.576;7.524;2022-07-29T06:26:55;22.90;73.60
67817;DHT22;54614;47.576;7.524;2022-07-29T06:29:23;23.00;73.50
67817;DHT22;54614;47.576;7.524;2022-07-29T06:31:50;23.00;73.80
67817;DHT22;54614;47.576;7.524;2022-07-29T06:34:16;22.90;74.10
67817;DHT22;54614;47.576;7.524;2022-07-29T06:36:42;22.80;73.90
67817;DHT22;54614;47.576;7.524;2022-07-29T06:39:08;23.00;73.20
67817;DHT22;54614;47.576;7.524;2022-07-29T06:41:34;23.10;73.10
67817;DHT22;54614;47.576;7.524;2022-07-29T06:44:01;23.20;72.50
67817;DHT22;54614;47.576;7.524;2022-07-29T06:46:27;23.30;72.40
67817;DHT22;54614;47.576;7.524;2022-07-29T06:48:53;23.30;72.50
67817;DHT22;54614;47.576;7.524;2022-07-29T06:51:19;23.20;72.50
67817;DHT22;54614;47.576;7.524;2022-07-29T06:53:46;23.20;72.80
67817;DHT22;54614;47.576;7.524;2022-07-29T06:56:12;23.20;72.90
67817;DHT22;54614;47.576;7.524;2022-07-29T06:58:39;23.10;73.00
67817;DHT22;54614;47.576;7.524;2022-07-29T07:01:06;23.10;72.80
67817;DHT22;54614;47.576;7.524;2022-07-29T07:03:32;23.20;72.40
67817;DHT22;54614;47.576;7.524;2022-07-29T07:05:59;23.20;71.80
67817;DHT22;54614;47.576;7.524;2022-07-29T07:08:25;23.30;71.70
67817;DHT22;54614;47.576;7.524;2022-07-29T07:10:52;23.30;71.50
67817;DHT22;54614;47.576;7.524;2022-07-29T07:13:19;23.40;71.10
67817;DHT22;54614;47.576;7.524;2022-07-29T07:15:45;23.50;70.90
67817;DHT22;54614;47.576;7.524;2022-07-29T07:18:14;23.50;70.60
67817;DHT22;54614;47.576;7.524;2022-07-29T07:20:41;23.60;70.70
67817;DHT22;54614;47.576;7.524;2022-07-29T07:23:07;23.60;70.60
67817;DHT22;54614;47.576;7.524;2022-07-29T07:25:33;23.60;70.90
67817;DHT22;54614;47.576;7.524;2022-07-29T07:28:00;23.60;70.80
67817;DHT22;54614;47.576;7.524;2022-07-29T07:30:26;23.60;71.60
67817;DHT22;54614;47.576;7.524;2022-07-29T07:32:53;23.60;70.70
67817;DHT22;54614;47.576;7.524;2022-07-29T07:35:20;23.70;70.70
67817;DHT22;54614;47.576;7.524;2022-07-29T07:37:47;23.70;70.70
67817;DHT22;54614;47.576;7.524;2022-07-29T07:40:13;23.70;70.70
67817;DHT22;54614;47.576;7.524;2022-07-29T07:42:40;23.70;70.70
67817;DHT22;54614;47.576;7.524;2022-07-29T07:45:07;23.70;70.70
67817;DHT22;54614;47.576;7.524;2022-07-29T07:47:35;23.80;70.70
67817;DHT22;54614;47.576;7.524;2022-07-29T07:50:06;23.80;70.70
67817;DHT22;54614;47.576;7.524;2022-07-29T07:52:33;23.80;70.60
67817;DHT22;54614;47.576;7.524;2022-07-29T07:54:59;23.90;70.50
67817;DHT22;54614;47.576;7.524;2022-07-29T07:57:25;23.90;70.70
67817;DHT22;54614;47.576;7.524;2022-07-29T07:59:51;23.90;70.50
67817;DHT22;54614;47.576;7.524;2022-07-29T08:02:17;23.90;70.40
67817;DHT22;54614;47.576;7.524;2022-07-29T08:04:43;23.90;70.30
67817;DHT22;54614;47.576;7.524;2022-07-29T08:07:08;23.90;70.20
67817;DHT22;54614;47.576;7.524;2022-07-29T08:09:35;24.00;70.40
67817;DHT22;54614;47.576;7.524;2022-07-29T08:12:02;24.00;70.40
67817;DHT22;54614;47.576;7.524;2022-07-29T08:14:30;24.00;70.40
67817;DHT22;54614;47.576;7.524;2022-07-29T08:16:56;24.00;70.30
67817;DHT22;54614;47.576;7.524;2022-07-29T08:19:22;24.00;70.30
67817;DHT22;54614;47.576;7.524;2022-07-29T08:21:48;24.10;70.40
67817;DHT22;54614;47.576;7.524;2022-07-29T08:24:14;24.10;70.40
67817;DHT22;54614;47.576;7.524;2022-07-29T08:26:59;24.10;70.30
67817;DHT22;54614;47.576;7.524;2022-07-29T08:29:24;24.10;70.10
67817;DHT22;54614;47.576;7.524;2022-07-29T08:31:50;24.10;70.10
67817;DHT22;54614;47.576;7.524;2022-07-29T08:34:16;24.20;70.10
67817;DHT22;54614;47.576;7.524;2022-07-29T08:36:42;24.20;70.00
67817;DHT22;54614;47.576;7.524;2022-07-29T08:39:08;24.20;69.90
67817;DHT22;54614;47.576;7.524;2022-07-29T08:41:35;24.20;69.80
67817;DHT22;54614;47.576;7.524;2022-07-29T08:44:02;24.20;69.70
67817;DHT22;54614;47.576;7.524;2022-07-29T08:46:29;24.20;69.60
67817;DHT22;54614;47.576;7.524;2022-07-29T08:48:55;24.30;69.60
67817;DHT22;54614;47.576;7.524;2022-07-29T08:51:22;24.30;69.40
67817;DHT22;54614;47.576;7.524;2022-07-29T08:53:50;24.30;69.40
67817;DHT22;54614;47.576;7.524;2022-07-29T08:56:18;24.30;69.30
67817;DHT22;54614;47.576;7.524;2022-07-29T08:58:46;24.30;69.20
67817;DHT22;54614;47.576;7.524;2022-07-29T09:01:16;24.30;69.20
67817;DHT22;54614;47.576;7.524;2022-07-29T09:03:44;24.30;69.00
67817;DHT22;54614;47.576;7.524;2022-07-29T09:06:15;24.30;69.70
67817;DHT22;54614;47.576;7.524;2022-07-29T09:08:44;24.40;68.70
67817;DHT22;54614;47.576;7.524;2022-07-29T09:11:11;24.40;68.30
67817;DHT22;54614;47.576;7.524;2022-07-29T09:13:39;24.50;68.10
67817;DHT22;54614;47.576;7.524;2022-07-29T09:16:06;24.50;67.90
67817;DHT22;54614;47.576;7.524;2022-07-29T09:18:40;24.50;67.80
67817;DHT22;54614;47.576;7.524;2022-07-29T09:21:12;24.50;67.70
67817;DHT22;54614;47.576;7.524;2022-07-29T09:26:41;24.50;68.20
67817;DHT22;54614;47.576;7.524;2022-07-29T09:29:10;24.60;67.60
67817;DHT22;54614;47.576;7.524;2022-07-29T09:31:41;24.60;67.60
67817;DHT22;54614;47.576;7.524;2022-07-29T09:34:09;24.50;67.60
67817;DHT22;54614;47.576;7.524;2022-07-29T09:36:45;24.50;67.80
67817;DHT22;54614;47.576;7.524;2022-07-29T09:39:14;24.50;68.00
67817;DHT22;54614;47.576;7.524;2022-07-29T09:41:49;24.60;68.00
67817;DHT22;54614;47.576;7.524;2022-07-29T09:44:18;24.60;67.80
67817;DHT22;54614;47.576;7.524;2022-07-29T09:46:59;24.60;67.80
67817;DHT22;54614;47.576;7.524;2022-07-29T09:49:50;24.60;67.70
67817;DHT22;54614;47.576;7.524;2022-07-29T09:52:26;24.60;67.70
67817;DHT22;54614;47.576;7.524;2022-07-29T09:54:52;24.60;67.50
67817;DHT22;54614;47.576;7.524;2022-07-29T09:57:28;24.60;67.70
67817;DHT22;54614;47.576;7.524;2022-07-29T10:02:39;24.60;67.40
67817;DHT22;54614;47.576;7.524;2022-07-29T10:05:19;24.50;67.40
67817;DHT22;54614;47.576;7.524;2022-07-29T10:07:48;24.60;67.50
67817;DHT22;54614;47.576;7.524;2022-07-29T10:10:33;24.50;67.40
67817;DHT22;54614;47.576;7.524;2022-07-29T10:13:03;24.50;67.40
67817;DHT22;54614;47.576;7.524;2022-07-29T10:15:33;24.50;67.30
67817;DHT22;54614;47.576;7.524;2022-07-29T10:18:06;24.50;67.30
67817;DHT22;54614;47.576;7.524;2022-07-29T10:20:34;24.50;67.40
67817;DHT22;54614;47.576;7.524;2022-07-29T10:23:00;24.50;67.40
67817;DHT22;54614;47.576;7.524;2022-07-29T10:25:26;24.50;67.50
67817;DHT22;54614;47.576;7.524;2022-07-29T10:27:53;24.50;67.40
67817;DHT22;54614;47.576;7.524;2022-07-29T10:30:22;24.50;67.40
67817;DHT22;54614;47.576;7.524;2022-07-29T10:39:04;24.50;67.30
67817;DHT22;54614;47.576;7.524;2022-07-29T10:44:48;24.50;67.30
67817;DHT22;54614;47.576;7.524;2022-07-29T10:47:33;24.50;67.20
67817;DHT22;54614;47.576;7.524;2022-07-29T10:50:03;24.50;67.20
67817;DHT22;54614;47.576;7.524;2022-07-29T10:55:37;24.50;67.10
67817;DHT22;54614;47.576;7.524;2022-07-29T11:00:48;24.50;67.10
67817;DHT22;54614;47.576;7.524;2022-07-29T11:03:44;24.50;67.10
67817;DHT22;54614;47.576;7.524;2022-07-29T11:06:13;24.50;67.00
67817;DHT22;54614;47.576;7.524;2022-07-29T11:08:40;24.50;67.30
67817;DHT22;54614;47.576;7.524;2022-07-29T11:13:45;24.50;67.00
67817;DHT22;54614;47.576;7.524;2022-07-29T11:16:21;24.50;67.00
67817;DHT22;54614;47.576;7.524;2022-07-29T11:21:45;24.50;67.00
67817;DHT22;54614;47.576;7.524;2022-07-29T11:24:21;24.50;66.90
67817;DHT22;54614;47.576;7.524;2022-07-29T11:27:26;24.50;67.60
67817;DHT22;54614;47.576;7.524;2022-07-29T11:29:58;24.70;66.90
67817;DHT22;54614;47.576;7.524;2022-07-29T11:32:37;24.50;66.80
67817;DHT22;54614;47.576;7.524;2022-07-29T11:35:17;24.50;66.80
67817;DHT22;54614;47.576;7.524;2022-07-29T11:38:26;24.50;66.80
67817;DHT22;54614;47.576;7.524;2022-07-29T11:41:21;24.50;66.80
67817;DHT22;54614;47.576;7.524;2022-07-29T11:43:55;24.50;66.70
67817;DHT22;54614;47.576;7.524;2022-07-29T11:46:45;24.50;66.80
67817;DHT22;54614;47.576;7.524;2022-07-29T11:49:22;24.50;66.70
67817;DHT22;54614;47.576;7.524;2022-07-29T11:51:53;24.50;66.70
67817;DHT22;54614;47.576;7.524;2022-07-29T11:54:30;24.50;66.70
67817;DHT22;54614;47.576;7.524;2022-07-29T11:57:00;24.50;66.70
67817;DHT22;54614;47.576;7.524;2022-07-29T11:59:26;24.60;66.80
67817;DHT22;54614;47.576;7.524;2022-07-29T12:01:58;24.50;66.70
67817;DHT22;54614;47.576;7.524;2022-07-29T12:04:25;24.60;66.70
67817;DHT22;54614;47.576;7.524;2022-07-29T12:06:55;24.60;66.70
67817;DHT22;54614;47.576;7.524;2022-07-29T12:09:22;24.60;66.70
67817;DHT22;54614;47.576;7.524;2022-07-29T12:11:58;24.60;66.70
67817;DHT22;54614;47.576;7.524;2022-07-29T12:14:29;24.50;66.60
67817;DHT22;54614;47.576;7.524;2022-07-29T12:16:56;24.50;66.60
67817;DHT22;54614;47.576;7.524;2022-07-29T12:19:23;24.60;66.60
67817;DHT22;54614;47.576;7.524;2022-07-29T12:21:53;24.60;66.60
67817;DHT22;54614;47.576;7.524;2022-07-29T12:24:25;24.60;66.70
67817;DHT22;54614;47.576;7.524;2022-07-29T12:29:22;24.60;66.60
67817;DHT22;54614;47.576;7.524;2022-07-29T12:31:52;24.60;66.60
67817;DHT22;54614;47.576;7.524;2022-07-29T12:34:22;24.60;66.60
67817;DHT22;54614;47.576;7.524;2022-07-29T12:36:49;24.60;66.60
67817;DHT22;54614;47.576;7.524;2022-07-29T12:39:16;24.60;66.50
67817;DHT22;54614;47.576;7.524;2022-07-29T12:41:43;24.60;66.60
67817;DHT22;54614;47.576;7.524;2022-07-29T12:44:10;24.60;66.50
67817;DHT22;54614;47.576;7.524;2022-07-29T12:46:36;24.60;66.50
67817;DHT22;54614;47.576;7.524;2022-07-29T12:49:03;24.60;66.50
67817;DHT22;54614;47.576;7.524;2022-07-29T12:51:34;24.60;66.50
67817;DHT22;54614;47.576;7.524;2022-07-29T12:54:10;24.60;66.50
67817;DHT22;54614;47.576;7.524;2022-07-29T12:56:40;24.60;66.50
67817;DHT22;54614;47.576;7.524;2022-07-29T12:59:16;24.60;66.50
67817;DHT22;54614;47.576;7.524;2022-07-29T13:01:45;24.60;66.50
67817;DHT22;54614;47.576;7.524;2022-07-29T13:04:27;24.60;66.50
67817;DHT22;54614;47.576;7.524;2022-07-29T13:07:05;24.60;66.40
67817;DHT22;54614;47.576;7.524;2022-07-29T13:09:45;24.60;66.40
67817;DHT22;54614;47.576;7.524;2022-07-29T13:12:12;24.60;66.50
67817;DHT22;54614;47.576;7.524;2022-07-29T13:14:45;24.60;66.50
67817;DHT22;54614;47.576;7.524;2022-07-29T13:17:20;24.60;66.40
67817;DHT22;54614;47.576;7.524;2022-07-29T13:20:07;24.60;66.40
67817;DHT22;54614;47.576;7.524;2022-07-29T13:22:38;24.60;66.40
67817;DHT22;54614;47.576;7.524;2022-07-29T13:25:05;24.60;66.40
67817;DHT22;54614;47.576;7.524;2022-07-29T13:31:13;24.60;66.40
67817;DHT22;54614;47.576;7.524;2022-07-29T13:33:39;24.60;66.30
67817;DHT22;54614;47.576;7.524;2022-07-29T13:36:05;24.60;66.30
67817;DHT22;54614;47.576;7.524;2022-07-29T13:38:31;24.60;66.40
67817;DHT22;54614;47.576;7.524;2022-07-29T13:40:57;24.60;66.30
67817;DHT22;54614;47.576;7.524;2022-07-29T13:43:23;24.60;66.30
67817;DHT22;54614;47.576;7.524;2022-07-29T13:45:49;24.60;66.30
67817;DHT22;54614;47.576;7.524;2022-07-29T13:48:15;24.60;66.20
67817;DHT22;54614;47.576;7.524;2022-07-29T13:50:41;24.60;66.20
67817;DHT22;54614;47.576;7.524;2022-07-29T13:53:07;24.60;66.20
67817;DHT22;54614;47.576;7.524;2022-07-29T13:55:33;24.60;66.10
67817;DHT22;54614;47.576;7.524;2022-07-29T13:58:01;24.60;66.20
67817;DHT22;54614;47.576;7.524;2022-07-29T14:00:26;24.70;66.20
67817;DHT22;54614;47.576;7.524;2022-07-29T14:02:52;24.60;66.10
67817;DHT22;54614;47.576;7.524;2022-07-29T14:05:18;24.60;66.10
67817;DHT22;54614;47.576;7.524;2022-07-29T14:07:44;24.60;65.90
67817;DHT22;54614;47.576;7.524;2022-07-29T14:10:10;24.60;65.80
67817;DHT22;54614;47.576;7.524;2022-07-29T14:12:37;24.70;65.70
67817;DHT22;54614;47.576;7.524;2022-07-29T14:15:03;24.70;65.60
67817;DHT22;54614;47.576;7.524;2022-07-29T14:17:30;24.70;65.60
67817;DHT22;54614;47.576;7.524;2022-07-29T14:19:55;24.70;65.50
67817;DHT22;54614;47.576;7.524;2022-07-29T14:22:21;24.70;65.60
67817;DHT22;54614;47.576;7.524;2022-07-29T14:24:47;24.60;65.60
67817;DHT22;54614;47.576;7.524;2022-07-29T14:27:13;24.60;65.70
67817;DHT22;54614;47.576;7.524;2022-07-29T14:29:39;24.70;65.80
67817;DHT22;54614;47.576;7.524;2022-07-29T14:32:06;24.60;65.70
67817;DHT22;54614;47.576;7.524;2022-07-29T14:34:33;24.60;65.80
67817;DHT22;54614;47.576;7.524;2022-07-29T14:37:00;24.60;65.90
67817;DHT22;54614;47.576;7.524;2022-07-29T14:39:26;24.60;65.80
67817;DHT22;54614;47.576;7.524;2022-07-29T14:41:52;24.60;65.80
67817;DHT22;54614;47.576;7.524;2022-07-29T14:44:18;24.70;65.90
67817;DHT22;54614;47.576;7.524;2022-07-29T14:46:44;24.80;66.30
67817;DHT22;54614;47.576;7.524;2022-07-29T14:49:10;24.80;65.50
67817;DHT22;54614;47.576;7.524;2022-07-29T14:51:36;25.00;65.20
67817;DHT22;54614;47.576;7.524;2022-07-29T14:54:02;24.90;65.10
67817;DHT22;54614;47.576;7.524;2022-07-29T14:56:28;25.00;65.20
67817;DHT22;54614;47.576;7.524;2022-07-29T14:58:56;24.80;65.30
67817;DHT22;54614;47.576;7.524;2022-07-29T15:01:23;24.80;65.50
67817;DHT22;54614;47.576;7.524;2022-07-29T15:03:50;24.80;65.70
67817;DHT22;54614;47.576;7.524;2022-07-29T15:06:16;24.80;65.70
67817;DHT22;54614;47.576;7.524;2022-07-29T15:08:42;24.70;65.70
67817;DHT22;54614;47.576;7.524;2022-07-29T15:11:07;24.70;65.70
67817;DHT22;54614;47.576;7.524;2022-07-29T15:13:34;24.70;65.80
67817;DHT22;54614;47.576;7.524;2022-07-29T15:16:00;24.70;65.80
67817;DHT22;54614;47.576;7.524;2022-07-29T15:18:26;24.70;65.90
67817;DHT22;54614;47.576;7.524;2022-07-29T15:20:52;24.70;65.90
67817;DHT22;54614;47.576;7.524;2022-07-29T15:23:18;24.70;65.90
67817;DHT22;54614;47.576;7.524;2022-07-29T15:25:44;24.70;66.00
67817;DHT22;54614;47.576;7.524;2022-07-29T15:28:10;24.70;66.10
67817;DHT22;54614;47.576;7.524;2022-07-29T15:30:35;24.70;65.90
67817;DHT22;54614;47.576;7.524;2022-07-29T15:33:07;24.70;65.80
67817;DHT22;54614;47.576;7.524;2022-07-29T15:35:37;24.70;65.70
67817;DHT22;54614;47.576;7.524;2022-07-29T15:38:04;24.70;65.70
67817;DHT22;54614;47.576;7.524;2022-07-29T15:40:30;24.70;65.70
67817;DHT22;54614;47.576;7.524;2022-07-29T15:42:56;24.70;65.70
67817;DHT22;54614;47.576;7.524;2022-07-29T15:45:22;24.70;65.70
67817;DHT22;54614;47.576;7.524;2022-07-29T15:47:48;24.70;65.70
67817;DHT22;54614;47.576;7.524;2022-07-29T15:50:14;24.70;65.70
67817;DHT22;54614;47.576;7.524;2022-07-29T15:52:41;24.70;65.70
67817;DHT22;54614;47.576;7.524;2022-07-29T15:55:08;24.70;65.80
67817;DHT22;54614;47.576;7.524;2022-07-29T15:57:34;24.70;65.70
67817;DHT22;54614;47.576;7.524;2022-07-29T16:00:00;24.80;65.70
67817;DHT22;54614;47.576;7.524;2022-07-29T16:02:26;24.70;65.60
67817;DHT22;54614;47.576;7.524;2022-07-29T16:04:52;24.70;65.50
67817;DHT22;54614;47.576;7.524;2022-07-29T16:07:18;24.80;65.50
67817;DHT22;54614;47.576;7.524;2022-07-29T16:09:44;24.70;65.50
67817;DHT22;54614;47.576;7.524;2022-07-29T16:12:10;24.80;65.60
67817;DHT22;54614;47.576;7.524;2022-07-29T16:14:36;24.70;65.60
67817;DHT22;54614;47.576;7.524;2022-07-29T16:17:02;24.80;66.30
67817;DHT22;54614;47.576;7.524;2022-07-29T16:19:31;24.80;65.60
67817;DHT22;54614;47.576;7.524;2022-07-29T16:21:57;24.70;65.60
67817;DHT22;54614;47.576;7.524;2022-07-29T16:24:23;24.70;65.60
67817;DHT22;54614;47.576;7.524;2022-07-29T16:26:54;24.80;65.60
67817;DHT22;54614;47.576;7.524;2022-07-29T16:29:20;24.70;65.60
67817;DHT22;54614;47.576;7.524;2022-07-29T16:31:46;24.80;65.50
67817;DHT22;54614;47.576;7.524;2022-07-29T16:34:12;24.70;65.40